AirNav   Pilot Hours Calculator
 
 1557 users online  

04MA Goddard Airport
Haverhill, Massachusetts, USA

GOING TO HAVERHILL?


FAA INFORMATION EFFECTIVE 01 DECEMBER 2022

Location

FAA Identifier: 04MA
Lat/Long: 42-48-35.3210N 071-08-21.2110W
42-48.588683N 071-08.353517W
42.8098114,-71.1392253
(estimated)
Elevation: 200 ft. / 61 m (estimated)
Variation: 16W (1990)
From city: 3 miles NW of HAVERHILL, MA
Time zone: UTC -5 (UTC -4 during Daylight Saving Time)
Zip code: 01832

Airport Operations

Airport use: Private use, PERSONAL USE.
Activation date: 12/1992
Control tower: no
ARTCC: BOSTON CENTER
FSS: BRIDGEPORT FLIGHT SERVICE STATION
Attendance: UNATNDD
Wind indicator: yes
Segmented circle: no

Airport Communications

WX ASOS at LWM (6 nm S): PHONE 978-687-8017
WX ASOS at MHT (15 nm NW): 119.55 (603-621-1766)
WX AWOS-3PT at ASH (17 nm W): 125.1 (603-578-0473)
WX ASOS at BVY (17 nm SE): 119.2 (978-921-5042)

Nearby radio navigation aids

VOR radial/distance  VOR name  Freq  Var
MHTr124/10.7MANCHESTER VOR/DME114.4015W
BOSr002/27.9BOSTON VOR/DME112.7016W
CONr157/31.2CONCORD VOR/DME112.9015W

 
NDB name  Hdg/Dist  Freq  Var  ID
ROLLINS225/28.126016WESG . ... --.

Airport Services

Runway Information

Runway 16/34

Dimensions: 2100 x 300 ft. / 640 x 91 m
Surface: turf
RUNWAY 16  RUNWAY 34
Traffic pattern: leftleft

Airport Ownership and Management from official FAA records

Ownership: Privately-owned
Owner: ROBERT J. GODDARD
1020 NORTH BROADWAY
HAVERHILL, MA 01832
Phone 978-372-3642
Manager: ROBERT J. GODDARD
1020 NORTH BROADWAY
HAVERHILL, MA 01832
Phone 978-372-3642

Airport Operational Statistics

Aircraft based on the field: 1
Single engine airplanes: 1
    

Additional Remarks

OWNER DESIRES ARPT NOT BE CHARTED.
FOR CD CTC BOSTON APCH AT 603-594-5554.

Instrument Procedures

There are no published instrument procedures at 04MA.

Some nearby airports with instrument procedures:

KLWM - Lawrence Municipal Airport (6 nm S)
KMHT - Manchester Boston Regional Airport (15 nm NW)
KASH - Boire Field Airport (17 nm W)
KBVY - Beverly Regional Airport (17 nm SE)
KPSM - Portsmouth International Airport at Pease (21 nm NE)
 
Loc | Ops | Rwys | IFR | FBO | Links
Com | Nav | Svcs | Stats | Notes
Area around 04MA (Goddard Airport)
 
Road maps at: MapQuest Bing Google
 
Aerial photo
No photo
 
Sectional chart

 
Airport distance calculator
Flying to Goddard Airport? Find the distance to fly.

From to 04MA

Sunrise and sunset
Times for 06-Dec-2022
 Local
(UTC-5)
 Zulu
(UTC)
Morning civil twilight06:3011:30
Sunrise07:0212:02
Sunset16:1021:10
Evening civil twilight16:4221:42

Current date and time
Zulu (UTC)  06-Dec-2022 18:19:59
Local (UTC-5)  06-Dec-2022 13:19:59
 
METAR
KLWM 
6nm S 
061754Z 12005KT 10SM CLR 12/06 A3040 RMK AO2 SLP296 T01220061 10122 20006 56019
KMHT 
15nm NW 
061753Z 15005KT 10SM FEW012 BKN130 OVC200 11/06 A3038 RMK AO2 SLP303 T01110056 10111 20033 56018
KBVY 
17nm SE 
060653Z AUTO 16005KT 10SM CLR 06/04 A3039 RMK AO2 SLP286 T00560039
KASH 
17nm W 
061756Z 00000KT 10SM SCT044 09/07 A3040 RMK AO2 SLP299 T00940072 10094 20011 56019
TAF
KMHT 
15nm NW 
061721Z 0618/0718 15008KT P6SM FEW012 BKN140 BKN200 FM062000 12006KT P6SM BKN022 OVC050 FM070000 12006KT 6SM -SHRA OVC050 FM070100 11005KT 4SM -RA BR SCT009 OVC012 FM070600 10004KT 3SM -RA BR OVC010
NOTAMs
Click for the latest NOTAMs
NOTAMs are issued by the DoD/FAA and will open in a separate window not controlled by AirNav.

 

 
 

Would you like to see your business listed on this page?

 If your business provides an interesting product or service to pilots, flight crews, aircraft, or users of the Goddard Airport, you should consider listing it here.  To start the listing process, click on the button below
 
Add a business
 

Other Pages about Goddard Airport

Update a link
 
Copyright © AirNav, LLC. All rights reserved. Privacy Policy  Contact